»·PEaware :: PIN381 PANC-CYZF

PIN381 :: PANC-CYZF

FLIGHT INFORMATION

Flight Status: Arrived
Operator: Unknown
More flights by this operator :: More flights under this callsign
Pilot: Will D. (10979)
Aircraft: BOEING 737-200
(B732)
More flights by this aircraft type
Origin: PANC Stevens Anchorage Intl
United States
Destination: CYZF Yellowknife
Canada
More flights between these airports :: More routes between these airports
Route: TED J511 GKN J124 ORT NCA17 YWY YZF
File this flight plan on PilotEdge
Remarks:
Altitude:
(Current/Filed)
29,000ft
Speed:
(Current/Filed)
465kts
Departed: 05-May-18 02:01 PM
Arrived: 05-May-18 04:09 PM
Distance/Time
Traveled:
998nm/2:08
Distance/Time
To Go:
Arrived

Flight Plot

Page will automatically refresh every two minutes.

Flight plan parsing failed; only flown route is shown


Map Options




Map Legend


Flown Route
Filed Route
Departure Airport
Arrival Airport
Navaid (VOR, NDB)
Fix

Horizontal Profiles

Position Reports

Time Latitude Longitude Heading Altitude Ground
Speed
05-May-18 13:17 61.175741 -149.984914 104 160ft 0kts
05-May-18 13:18 61.175741 -149.984914 104 160ft 0kts
05-May-18 13:19 61.175741 -149.984914 104 160ft 0kts
05-May-18 13:20 61.175741 -149.984914 104 160ft 0kts
05-May-18 13:21 61.175741 -149.984914 104 160ft 0kts
05-May-18 13:22 61.175741 -149.984914 104 160ft 0kts
05-May-18 13:23 61.175741 -149.984914 104 160ft 0kts
05-May-18 13:24 61.175741 -149.984914 104 160ft 0kts
05-May-18 13:25 61.175741 -149.984914 104 160ft 0kts
05-May-18 13:26 61.175741 -149.984914 104 160ft 0kts
05-May-18 13:27 61.175741 -149.984914 104 160ft 0kts
05-May-18 13:28 61.175741 -149.984914 104 160ft 0kts
05-May-18 13:29 61.175741 -149.984914 104 160ft 0kts
05-May-18 13:30 61.175741 -149.984914 104 160ft 0kts
05-May-18 13:31 61.175741 -149.984914 104 160ft 0kts
05-May-18 13:32 61.175741 -149.984914 104 160ft 0kts
05-May-18 13:33 61.175741 -149.984914 104 160ft 0kts
05-May-18 13:34 61.175741 -149.984914 104 159ft 0kts
05-May-18 13:35 61.175741 -149.984914 104 159ft 0kts
05-May-18 13:36 61.175741 -149.984914 104 159ft 0kts
05-May-18 13:37 61.175741 -149.984914 104 159ft 0kts
05-May-18 13:38 61.175741 -149.984914 104 159ft 0kts
05-May-18 13:39 61.175741 -149.984914 104 159ft 0kts
05-May-18 13:40 61.175741 -149.984914 104 159ft 0kts
05-May-18 13:41 61.175741 -149.984914 104 159ft 0kts
05-May-18 13:42 61.175741 -149.984914 104 159ft 0kts
05-May-18 13:44 61.175741 -149.984914 104 159ft 0kts
05-May-18 13:45 61.175741 -149.984914 104 159ft 0kts
05-May-18 13:46 61.175741 -149.984914 104 159ft 0kts
05-May-18 13:47 61.175741 -149.984914 104 159ft 0kts
05-May-18 13:48 61.175741 -149.984914 104 159ft 0kts
05-May-18 13:49 61.175741 -149.984914 104 159ft 0kts
05-May-18 13:50 61.175741 -149.984914 104 159ft 0kts
05-May-18 13:51 61.175832 -149.985689 102 159ft 2kts
05-May-18 13:52 61.175783 -149.986702 341 159ft 2kts
05-May-18 13:53 61.175647 -149.986599 340 159ft 0kts
05-May-18 13:54 61.176251 -149.987052 339 159ft 10kts
05-May-18 13:55 61.176760 -149.991040 325 159ft 7kts
05-May-18 13:56 61.176876 -149.998148 335 159ft 14kts
05-May-18 13:57 61.184379 -150.002414 345 159ft 28kts
05-May-18 13:58 61.190646 -150.005939 345 159ft 24kts
05-May-18 13:59 61.196738 -150.009334 345 159ft 22kts
05-May-18 14:00 61.198041 -150.013626 165 159ft 26kts
05-May-18 14:01 61.180613 -150.003655 164 299ft 152kts
05-May-18 14:02 61.152235 -149.947575 96 2044ft 219kts
05-May-18 14:03 61.206148 -149.880685 359 5645ft 277kts
05-May-18 14:04 61.276040 -149.893417 352 9189ft 298kts
05-May-18 14:05 61.363773 -149.915097 351 12327ft 345kts
05-May-18 14:06 61.464584 -149.940432 350 15710ft 382kts
05-May-18 14:07 61.559131 -149.869139 55 19397ft 392kts
05-May-18 14:08 61.609073 -149.663941 74 22515ft 403kts
05-May-18 14:09 61.645841 -149.436475 79 25232ft 422kts
05-May-18 14:10 61.681401 -149.192976 81 27601ft 444kts
05-May-18 14:11 61.717856 -148.935757 82 28715ft 466kts
05-May-18 14:12 61.755079 -148.665542 82 28718ft 491kts
05-May-18 14:13 61.793054 -148.385041 82 28707ft 499kts
05-May-18 14:14 61.831248 -148.102777 83 28683ft 501kts
05-May-18 14:15 61.868434 -147.818435 83 28655ft 501kts
05-May-18 14:16 61.904885 -147.532907 84 28628ft 502kts
05-May-18 14:17 61.941473 -147.246165 85 28612ft 503kts
05-May-18 14:18 61.977389 -146.958069 85 28613ft 505kts
05-May-18 14:19 62.012644 -146.668271 86 28635ft 506kts
05-May-18 14:20 62.047384 -146.378291 87 28670ft 506kts
05-May-18 14:21 62.081468 -146.086355 87 28713ft 507kts
05-May-18 14:22 62.115322 -145.793412 88 28728ft 507kts
05-May-18 14:23 62.148662 -145.500224 84 28719ft 515kts
05-May-18 14:24 62.208708 -145.214054 71 28721ft 534kts
05-May-18 14:25 62.277480 -144.929407 71 28717ft 537kts
05-May-18 14:26 62.345433 -144.642869 71 28707ft 540kts
05-May-18 14:27 62.413211 -144.353061 71 28670ft 544kts
05-May-18 14:28 62.481203 -144.059684 72 28669ft 545kts
05-May-18 14:29 62.547867 -143.764462 71 28692ft 545kts
05-May-18 14:30 62.614255 -143.467729 72 28613ft 548kts
05-May-18 14:31 62.680386 -143.169199 72 28627ft 550kts
05-May-18 14:32 62.745930 -142.867485 72 28625ft 550kts
05-May-18 14:33 62.810773 -142.563997 73 28623ft 552kts
05-May-18 14:34 62.874937 -142.258142 73 28617ft 554kts
05-May-18 14:35 62.938785 -141.949662 75 28679ft 550kts
05-May-18 14:36 62.973586 -141.629625 91 28581ft 533kts
05-May-18 14:37 62.996423 -141.307850 92 28613ft 531kts
05-May-18 14:38 63.018773 -140.986065 92 28587ft 532kts
05-May-18 14:39 63.041450 -140.664218 90 28573ft 531kts
05-May-18 14:40 63.063136 -140.342264 91 28458ft 533kts
05-May-18 14:41 63.083874 -140.026606 91 28478ft 511kts
05-May-18 14:42 63.103842 -139.709089 91 28567ft 528kts
05-May-18 14:43 63.124055 -139.383240 91 28597ft 537kts
05-May-18 14:44 63.143270 -139.055410 91 28589ft 538kts
05-May-18 14:45 63.161823 -138.726065 91 28599ft 538kts
05-May-18 14:46 63.179573 -138.397565 91 28632ft 537kts
05-May-18 14:47 63.196572 -138.067496 91 28591ft 537kts
05-May-18 14:48 63.212975 -137.738534 91 28594ft 538kts
05-May-18 14:49 63.228842 -137.407453 91 28573ft 538kts
05-May-18 14:50 63.243436 -137.078284 91 28585ft 538kts
05-May-18 14:51 63.257306 -136.747531 91 28557ft 538kts
05-May-18 14:52 63.270539 -136.417917 92 28604ft 537kts
05-May-18 14:53 63.283533 -136.086443 92 28629ft 538kts
05-May-18 14:54 63.296174 -135.756503 92 28616ft 536kts
05-May-18 14:55 63.307513 -135.425545 92 28610ft 535kts
05-May-18 14:56 63.317329 -135.095312 92 28629ft 535kts
05-May-18 14:57 63.326730 -134.765100 92 28640ft 535kts
05-May-18 14:58 63.335348 -134.433371 93 28655ft 535kts
05-May-18 14:59 63.343001 -134.102912 93 28668ft 536kts
05-May-18 15:00 63.350148 -133.770220 93 28682ft 537kts
05-May-18 15:01 63.356476 -133.438178 93 28693ft 536kts
05-May-18 15:02 63.362398 -133.105768 93 28705ft 536kts
05-May-18 15:03 63.367722 -132.773890 93 28713ft 536kts
05-May-18 15:04 63.372164 -132.441773 94 28717ft 536kts
05-May-18 15:05 63.375054 -132.109557 94 28721ft 536kts
05-May-18 15:06 63.377459 -131.776642 93 28724ft 537kts
05-May-18 15:07 63.379165 -131.444108 94 28734ft 537kts
05-May-18 15:08 63.380099 -131.110982 94 28731ft 537kts
05-May-18 15:08 63.380367 -130.833076 94 28732ft 537kts
05-May-18 15:09 63.379908 -130.499486 94 28734ft 538kts
05-May-18 15:11 63.378286 -130.109725 94 28736ft 539kts
05-May-18 15:12 63.376221 -129.775465 94 28738ft 540kts
05-May-18 15:13 63.373494 -129.440602 94 28743ft 539kts
05-May-18 15:14 63.370338 -129.106972 94 28767ft 539kts
05-May-18 15:15 63.366580 -128.773469 94 28735ft 538kts
05-May-18 15:15 63.362197 -128.495131 95 28706ft 538kts
05-May-18 15:16 63.356219 -128.163047 95 28725ft 538kts
05-May-18 15:17 63.349372 -127.830337 95 28694ft 537kts
05-May-18 15:18 63.341739 -127.497463 95 28693ft 537kts
05-May-18 15:19 63.333602 -127.165558 95 28692ft 536kts
05-May-18 15:20 63.325070 -126.833921 95 28692ft 536kts
05-May-18 15:21 63.315937 -126.503186 95 28678ft 536kts
05-May-18 15:22 63.305063 -126.172022 96 28677ft 537kts
05-May-18 15:23 63.293717 -125.841071 95 28677ft 538kts
05-May-18 15:24 63.281703 -125.510386 96 28676ft 537kts
05-May-18 15:25 63.268808 -125.178722 96 28678ft 537kts
05-May-18 15:26 63.255310 -124.849295 95 28678ft 536kts
05-May-18 15:27 63.241068 -124.519886 96 28678ft 536kts
05-May-18 15:28 63.226267 -124.190640 96 28680ft 537kts
05-May-18 15:29 63.211012 -123.860323 95 28685ft 538kts
05-May-18 15:30 63.194855 -123.530157 96 28683ft 538kts
05-May-18 15:31 63.177815 -123.201422 95 28714ft 537kts
05-May-18 15:32 63.161188 -122.873137 95 28718ft 536kts
05-May-18 15:33 63.144335 -122.545290 95 28720ft 536kts
05-May-18 15:34 63.126519 -122.218734 96 28675ft 535kts
05-May-18 15:35 63.107460 -121.891588 95 28722ft 535kts
05-May-18 15:36 63.088117 -121.566894 96 28725ft 535kts
05-May-18 15:37 63.067679 -121.240682 96 28728ft 535kts
05-May-18 15:38 63.046960 -120.916389 96 28725ft 534kts
05-May-18 15:39 63.025921 -120.592795 96 28801ft 533kts
05-May-18 15:40 63.003479 -120.269679 96 28733ft 534kts
05-May-18 15:41 62.980017 -119.946902 96 28736ft 533kts
05-May-18 15:42 62.956068 -119.625187 96 28739ft 532kts
05-May-18 15:43 62.932046 -119.305124 96 28742ft 532kts
05-May-18 15:44 62.906984 -118.984268 97 28746ft 532kts
05-May-18 15:45 62.880787 -118.665623 97 28749ft 532kts
05-May-18 15:46 62.854284 -118.347037 97 28752ft 531kts
05-May-18 15:47 62.827401 -118.029175 97 28714ft 530kts
05-May-18 15:48 62.799282 -117.712242 97 28757ft 530kts
05-May-18 15:49 62.770363 -117.397100 98 28759ft 529kts
05-May-18 15:50 62.741460 -117.083703 98 27487ft 511kts
05-May-18 15:51 62.713439 -116.792511 98 24652ft 473kts
05-May-18 15:52 62.686865 -116.520136 99 21766ft 446kts
05-May-18 15:53 62.661361 -116.263151 99 19296ft 424kts
05-May-18 15:54 62.636245 -116.017748 100 16829ft 405kts
05-May-18 15:55 62.612481 -115.784874 99 14525ft 384kts
05-May-18 15:56 62.607560 -115.560703 87 12686ft 348kts
05-May-18 15:58 62.609179 -115.365647 85 10774ft 301kts
05-May-18 15:59 62.616051 -115.188846 84 8979ft 288kts
05-May-18 16:00 62.622220 -115.063876 85 7632ft 273kts
05-May-18 16:01 62.626115 -114.957856 86 6565ft 258kts
05-May-18 16:02 62.629681 -114.809100 90 5069ft 236kts
05-May-18 16:03 62.632633 -114.672738 90 3697ft 213kts
05-May-18 16:04 62.625531 -114.557136 113 2467ft 175kts
05-May-18 16:05 62.595562 -114.490071 143 1393ft 141kts
05-May-18 16:06 62.559661 -114.470262 165 2035ft 130kts
05-May-18 16:07 62.514559 -114.449425 173 1549ft 151kts
05-May-18 16:08 62.475196 -114.444103 176 728ft 112kts
05-May-18 16:09 62.464567 -114.442453 240 683ft 2kts
05-May-18 16:10 62.468955 -114.442463 59 683ft 13kts
05-May-18 16:11 62.470587 -114.439180 117 683ft 7kts
05-May-18 16:12 62.470511 -114.438882 119 683ft 0kts
05-May-18 16:13 62.470511 -114.438882 119 683ft 0kts
05-May-18 16:14 62.470511 -114.438882 119 683ft 0kts

Navigation Log

Ident Type
Flight plan parsing failed, navigation log unavailable